Time;durP1;ratioP1;P1;durP2;ratioP2;P2;SDS_P1;SDS_P2;PMS_P1;PMS_P2;Temp;Humidity;BMP_temperature;BMP_pressure;BME280_temperature;BME280_humidity;BME280_pressure;Samples;Min_cycle;Max_cycle;Signal;HPM_P1;HPM_P2
2022/10/17 00:01:13;;;;;;;1.08;0.80;;;23.50;61.80;;;;;;4992573;28;20118;-69
2022/10/17 00:03:39;;;;;;;1.77;0.90;;;23.50;61.90;;;;;;4991938;28;20031;-69
2022/10/17 00:06:13;;;;;;;2.63;1.00;;;23.50;61.90;;;;;;4995572;28;20081;-69
2022/10/17 00:08:40;;;;;;;1.35;0.80;;;23.50;61.90;;;;;;4998257;28;20018;-69
2022/10/17 00:11:11;;;;;;;1.38;0.93;;;23.50;61.90;;;;;;4996792;28;20022;-68
2022/10/17 00:13:37;;;;;;;1.30;0.90;;;23.40;61.90;;;;;;5001248;28;20397;-69
2022/10/17 00:16:03;;;;;;;0.85;0.80;;;23.50;61.90;;;;;;4996486;28;20038;-68
2022/10/17 00:18:29;;;;;;;1.05;0.77;;;23.40;61.90;;;;;;4998539;28;20695;-68
2022/10/17 00:20:54;;;;;;;1.35;0.75;;;23.40;61.90;;;;;;4985208;28;20026;-69
2022/10/17 00:23:20;;;;;;;0.85;0.63;;;23.40;62.00;;;;;;5000470;28;20045;-68
2022/10/17 00:25:45;;;;;;;1.55;1.00;;;23.40;62.00;;;;;;4997227;28;20080;-68
2022/10/17 00:28:12;;;;;;;1.58;0.80;;;23.40;62.00;;;;;;4981590;28;20036;-68
2022/10/17 00:30:38;;;;;;;1.25;0.80;;;23.40;62.00;;;;;;4982747;28;20395;-69
2022/10/17 00:33:04;;;;;;;1.15;0.80;;;23.40;62.00;;;;;;5000073;28;20041;-69
2022/10/17 00:35:29;;;;;;;1.90;1.00;;;23.40;62.00;;;;;;4982338;28;20396;-69
2022/10/17 00:37:55;;;;;;;1.23;0.80;;;23.40;62.00;;;;;;4997699;28;20034;-69
2022/10/17 00:40:21;;;;;;;1.58;0.93;;;23.40;62.10;;;;;;5001456;28;20018;-68
2022/10/17 00:42:47;;;;;;;1.70;1.10;;;23.40;62.10;;;;;;4994430;28;20081;-69
2022/10/17 00:45:21;;;;;;;1.52;0.80;;;23.30;62.10;;;;;;4991525;28;20030;-69
2022/10/17 00:48:07;;;;;;;1.15;0.80;;;23.30;62.00;;;;;;5000364;28;20449;-69
2022/10/17 00:50:37;;;;;;;1.23;0.90;;;23.30;62.10;;;;;;4996167;28;20536;-69
2022/10/17 00:53:05;;;;;;;2.28;1.20;;;23.30;62.10;;;;;;4963509;28;20041;-69
2022/10/17 00:55:34;;;;;;;1.92;0.93;;;23.30;62.10;;;;;;4976373;28;20386;-69
2022/10/17 00:58:02;;;;;;;1.50;0.88;;;23.30;62.10;;;;;;5003922;28;20065;-69
2022/10/17 01:00:28;;;;;;;1.25;0.90;;;23.30;62.10;;;;;;4982505;28;20571;-69
2022/10/17 01:02:54;;;;;;;1.25;0.90;;;23.30;62.10;;;;;;4983925;28;20026;-69
2022/10/17 01:05:20;;;;;;;1.75;0.90;;;23.30;62.10;;;;;;5003546;28;20110;-69
2022/10/17 01:07:49;;;;;;;1.38;0.80;;;23.30;62.10;;;;;;4991411;28;20021;-69
2022/10/17 01:10:16;;;;;;;;;;;23.20;62.00;;;;;;5001343;28;20030;-69
2022/10/17 01:12:59;;;;;;;1.48;0.80;;;23.30;62.10;;;;;;4999241;28;19945;-69
2022/10/17 01:15:51;;;;;;;2.22;0.90;;;23.20;62.10;;;;;;5000007;28;20592;-69
2022/10/17 01:18:23;;;;;;;0.90;0.80;;;23.20;62.10;;;;;;4995007;28;20457;-69
2022/10/17 01:21:16;;;;;;;1.40;1.00;;;23.20;62.10;;;;;;4998260;28;20022;-69
2022/10/17 01:24:12;;;;;;;1.95;0.88;;;23.20;62.10;;;;;;4999212;28;20507;-69
2022/10/17 01:27:03;;;;;;;1.15;0.85;;;23.20;62.10;;;;;;5000172;28;20034;-69
2022/10/17 01:29:40;;;;;;;0.93;0.70;;;23.20;62.10;;;;;;4994144;28;20057;-70
2022/10/17 01:32:39;;;;;;;1.77;0.80;;;23.20;62.10;;;;;;4996443;28;20023;-69
2022/10/17 01:35:10;;;;;;;1.33;0.80;;;23.20;62.10;;;;;;4996458;28;20045;-69
2022/10/17 01:38:12;;;;;;;1.40;0.80;;;23.20;62.00;;;;;;4996440;28;20030;-69
2022/10/17 01:40:45;;;;;;;1.63;0.80;;;23.20;62.00;;;;;;4980290;28;20503;-69
2022/10/17 01:43:23;;;;;;;1.40;1.00;;;23.20;62.00;;;;;;4998754;28;20088;-69
2022/10/17 01:45:54;;;;;;;1.75;0.80;;;23.20;62.00;;;;;;4980659;28;20489;-69
2022/10/17 01:48:25;;;;;;;1.50;0.88;;;23.20;62.00;;;;;;4996799;28;20435;-69
2022/10/17 01:50:56;;;;;;;1.23;0.80;;;23.20;62.00;;;;;;5001951;28;20053;-69
2022/10/17 01:53:29;;;;;;;1.50;0.80;;;23.20;62.00;;;;;;5001724;28;20362;-70
2022/10/17 01:55:59;;;;;;;0.90;0.70;;;23.20;62.00;;;;;;5000836;28;20125;-70
2022/10/17 01:58:36;;;;;;;1.08;0.80;;;23.20;62.00;;;;;;5000132;28;20188;-69
2022/10/17 02:01:05;;;;;;;1.85;0.80;;;23.20;62.00;;;;;;4978753;28;20382;-70
2022/10/17 02:03:33;;;;;;;0.98;0.73;;;23.20;62.00;;;;;;5000943;28;20030;-69
2022/10/17 02:05:59;;;;;;;1.15;0.70;;;23.20;61.90;;;;;;4978205;28;20035;-69
2022/10/17 02:08:46;;;;;;;1.30;0.80;;;23.10;61.90;;;;;;4999887;28;20041;-69
2022/10/17 02:11:21;;;;;;;1.52;0.90;;;23.20;61.90;;;;;;4993090;28;20035;-69
2022/10/17 02:13:52;;;;;;;1.33;0.82;;;23.20;61.90;;;;;;4975846;28;20172;-69
2022/10/17 02:16:59;;;;;;;1.00;0.70;;;23.10;61.90;;;;;;4992077;28;20039;-70
2022/10/17 02:19:46;;;;;;;1.38;0.90;;;23.20;61.90;;;;;;4926072;29;20534;-69
2022/10/17 02:22:34;;;;;;;1.50;0.90;;;23.10;61.90;;;;;;4941068;29;20023;-69
2022/10/17 02:25:23;;;;;;;1.20;0.70;;;23.10;61.90;;;;;;4972003;28;20082;-70
2022/10/17 02:28:02;;;;;;;1.30;0.70;;;23.10;61.90;;;;;;4976815;28;20046;-69
2022/10/17 02:30:43;;;;;;;0.90;0.60;;;23.10;61.90;;;;;;4979383;28;20034;-69
2022/10/17 02:33:13;;;;;;;0.88;0.80;;;23.10;61.90;;;;;;4974264;28;20066;-69
2022/10/17 02:35:44;;;;;;;1.60;0.88;;;23.10;61.80;;;;;;4979209;28;20038;-69
2022/10/17 02:38:11;;;;;;;1.02;0.77;;;23.10;61.90;;;;;;4979211;28;20023;-69
2022/10/17 02:40:38;;;;;;;0.90;0.80;;;23.10;61.90;;;;;;4979063;28;20058;-69
2022/10/17 02:43:04;;;;;;;1.38;0.80;;;23.10;61.90;;;;;;4980569;28;20538;-69
2022/10/17 02:45:34;;;;;;;1.25;0.75;;;23.10;61.90;;;;;;4972904;28;20101;-69
2022/10/17 02:48:11;;;;;;;1.58;0.90;;;23.10;61.90;;;;;;4978059;28;20038;-69
2022/10/17 02:50:51;;;;;;;1.00;0.80;;;23.10;61.90;;;;;;4975203;28;20343;-70
2022/10/17 02:53:27;;;;;;;1.17;0.70;;;23.10;61.90;;;;;;4979855;28;20031;-69
2022/10/17 02:56:01;;;;;;;1.10;0.77;;;23.10;61.90;;;;;;4979435;28;20109;-69
2022/10/17 02:58:31;;;;;;;1.20;0.90;;;23.10;61.80;;;;;;4979021;28;20085;-70
2022/10/17 03:00:58;;;;;;;0.90;0.77;;;23.10;61.90;;;;;;4980462;28;20378;-69
2022/10/17 03:03:30;;;;;;;1.40;0.80;;;23.10;61.90;;;;;;4978302;28;20022;-69
2022/10/17 03:05:56;;;;;;;1.52;0.80;;;23.10;61.90;;;;;;4977485;28;20559;-69
2022/10/17 03:08:22;;;;;;;1.17;0.90;;;23.00;61.80;;;;;;4978511;28;20134;-69
2022/10/17 03:10:47;;;;;;;1.00;0.73;;;23.10;61.90;;;;;;4976488;28;20454;-70
2022/10/17 03:13:14;;;;;;;1.08;0.90;;;23.00;61.80;;;;;;4973676;28;20029;-69
2022/10/17 03:15:40;;;;;;;1.20;0.80;;;23.00;61.80;;;;;;4981418;28;20054;-69
2022/10/17 03:18:05;;;;;;;0.80;0.60;;;23.00;61.80;;;;;;4973491;28;20026;-69
2022/10/17 03:20:31;;;;;;;1.25;0.80;;;23.00;61.90;;;;;;5000521;28;20026;-69
2022/10/17 03:22:57;;;;;;;1.20;0.80;;;23.00;61.80;;;;;;4999535;28;20588;-69
2022/10/17 03:25:23;;;;;;;0.98;0.60;;;23.00;61.80;;;;;;4980777;28;20137;-69
2022/10/17 03:27:48;;;;;;;1.05;0.70;;;23.00;61.80;;;;;;4984025;28;20034;-69
2022/10/17 03:30:14;;;;;;;1.38;0.80;;;23.00;61.80;;;;;;4997443;28;20030;-69
2022/10/17 03:32:40;;;;;;;1.77;0.80;;;23.00;61.80;;;;;;4997831;28;20477;-70
2022/10/17 03:35:06;;;;;;;0.80;0.73;;;23.00;62.40;;;;;;4995968;28;20120;-69
2022/10/17 03:37:31;;;;;;;1.00;0.80;;;23.00;61.80;;;;;;4998879;28;20124;-69
2022/10/17 03:39:57;;;;;;;1.10;0.75;;;22.90;61.80;;;;;;4982610;28;20034;-69
2022/10/17 03:42:22;;;;;;;1.30;0.80;;;22.90;61.80;;;;;;5003354;28;20022;-69
2022/10/17 03:44:48;;;;;;;0.80;0.70;;;22.90;61.80;;;;;;4985610;28;20523;-69
2022/10/17 03:47:14;;;;;;;1.17;0.80;;;22.90;61.80;;;;;;4987044;28;20054;-69
2022/10/17 03:49:39;;;;;;;1.35;0.73;;;22.90;61.80;;;;;;5000121;28;20367;-70
2022/10/17 03:52:05;;;;;;;0.93;0.70;;;22.90;61.80;;;;;;4998209;28;20486;-69
2022/10/17 03:54:30;;;;;;;1.52;1.00;;;22.90;61.80;;;;;;4987576;28;20030;-69
2022/10/17 03:56:56;;;;;;;0.88;0.80;;;22.90;61.80;;;;;;4985742;28;20434;-69
2022/10/17 03:59:22;;;;;;;1.15;0.70;;;22.90;61.80;;;;;;4985293;28;20117;-69
2022/10/17 04:01:47;;;;;;;0.82;0.70;;;22.90;61.80;;;;;;5001293;28;20057;-69
2022/10/17 04:04:13;;;;;;;1.20;0.77;;;22.90;61.80;;;;;;4973452;28;20033;-69
2022/10/17 04:06:39;;;;;;;0.95;0.70;;;22.90;61.80;;;;;;5003561;28;20545;-69
2022/10/17 04:09:06;;;;;;;2.20;0.80;;;22.90;61.80;;;;;;5006857;28;20454;-69
2022/10/17 04:11:32;;;;;;;1.10;0.70;;;22.90;61.80;;;;;;5003266;28;20042;-69
2022/10/17 04:14:00;;;;;;;1.00;0.70;;;22.90;61.80;;;;;;4987426;28;20049;-69
2022/10/17 04:16:28;;;;;;;1.15;0.77;;;22.90;62.30;;;;;;5006269;28;20050;-69
2022/10/17 04:18:56;;;;;;;1.02;0.73;;;22.90;61.70;;;;;;4983098;28;20572;-69
2022/10/17 04:21:23;;;;;;;0.80;0.70;;;22.90;61.70;;;;;;5001084;28;20072;-69
2022/10/17 04:23:53;;;;;;;0.80;0.70;;;22.90;61.70;;;;;;5004852;28;20030;-69
2022/10/17 04:26:19;;;;;;;1.00;0.80;;;22.90;61.70;;;;;;4999082;28;20030;-69
2022/10/17 04:28:45;;;;;;;0.93;0.77;;;22.90;62.30;;;;;;4999083;28;20433;-69
2022/10/17 04:31:12;;;;;;;1.00;0.70;;;22.90;61.80;;;;;;4986444;28;20034;-69
2022/10/17 04:33:39;;;;;;;1.23;0.80;;;22.90;61.80;;;;;;5001090;28;20474;-69
2022/10/17 04:36:16;;;;;;;1.15;0.90;;;22.90;61.80;;;;;;5000453;28;20029;-69
2022/10/17 04:38:42;;;;;;;1.70;0.80;;;22.90;61.80;;;;;;5004226;28;20430;-68
2022/10/17 04:41:11;;;;;;;0.93;0.70;;;22.90;61.80;;;;;;5001549;28;20022;-69
2022/10/17 04:43:38;;;;;;;0.93;0.80;;;22.90;61.80;;;;;;4996286;28;20887;-70
2022/10/17 04:46:10;;;;;;;1.27;0.80;;;22.80;61.70;;;;;;4979115;28;20370;-69
2022/10/17 04:48:36;;;;;;;1.15;0.70;;;22.80;61.70;;;;;;4968022;28;20025;-69
2022/10/17 04:51:05;;;;;;;1.50;0.85;;;22.80;61.70;;;;;;5001197;28;20033;-69
2022/10/17 04:53:33;;;;;;;1.30;0.88;;;22.90;61.70;;;;;;5000556;28;20496;-69
2022/10/17 04:55:59;;;;;;;1.52;1.10;;;22.80;61.60;;;;;;5004015;28;20042;-69
2022/10/17 04:58:25;;;;;;;1.88;0.80;;;22.80;61.60;;;;;;4988250;28;20490;-69
2022/10/17 05:00:50;;;;;;;1.55;0.88;;;22.80;61.60;;;;;;5001291;28;20117;-69
2022/10/17 05:03:16;;;;;;;0.90;0.80;;;22.80;61.60;;;;;;5001200;28;20497;-69
2022/10/17 05:05:42;;;;;;;1.38;0.77;;;22.90;61.60;;;;;;4999701;28;20030;-69
2022/10/17 05:08:09;;;;;;;0.93;0.68;;;22.80;61.60;;;;;;4999110;28;20034;-69
2022/10/17 05:10:37;;;;;;;0.80;0.68;;;22.80;61.60;;;;;;4996718;28;20030;-69
2022/10/17 05:13:03;;;;;;;1.05;0.70;;;22.80;61.60;;;;;;4993465;28;20478;-70
2022/10/17 05:15:29;;;;;;;1.15;0.80;;;22.80;61.60;;;;;;5002337;28;20533;-70
2022/10/17 05:17:55;;;;;;;1.38;0.95;;;22.90;61.80;;;;;;4996292;28;20042;-69
2022/10/17 05:20:20;;;;;;;2.95;1.00;;;22.90;61.80;;;;;;4996183;28;20080;-70
2022/10/17 05:22:46;;;;;;;2.70;0.90;;;23.10;61.60;;;;;;4992812;28;20046;-71
2022/10/17 05:25:12;;;;;;;2.15;1.00;;;23.20;61.20;;;;;;5001562;28;20501;-69
2022/10/17 05:27:37;;;;;;;1.95;1.10;;;23.30;60.90;;;;;;5002528;28;20030;-70
2022/10/17 05:30:04;;;;;;;2.22;0.90;;;23.40;60.70;;;;;;4999278;28;20142;-70
2022/10/17 05:32:29;;;;;;;2.40;1.52;;;23.40;60.50;;;;;;4998139;28;20026;-71
2022/10/17 05:34:55;;;;;;;3.72;1.33;;;23.50;60.30;;;;;;5003581;28;20026;-70
2022/10/17 05:37:21;;;;;;;4.85;1.48;;;23.60;60.70;;;;;;5000941;28;20088;-70
2022/10/17 05:39:46;;;;;;;3.05;1.30;;;23.60;60.00;;;;;;5005815;28;20057;-72
2022/10/17 05:42:12;;;;;;;2.42;1.00;;;23.80;59.80;;;;;;5002581;28;20033;-72
2022/10/17 05:44:40;;;;;;;1.80;1.00;;;23.80;59.70;;;;;;4996180;28;20031;-72
2022/10/17 05:47:06;;;;;;;3.45;1.10;;;23.90;59.50;;;;;;4998773;28;20026;-72
2022/10/17 05:49:32;;;;;;;1.75;0.80;;;24.00;59.40;;;;;;4999205;28;20027;-68
2022/10/17 05:51:57;;;;;;;2.85;0.95;;;24.00;59.30;;;;;;5005022;28;20125;-68
2022/10/17 05:54:23;;;;;;;3.65;1.02;;;24.00;59.30;;;;;;4998756;28;20037;-68
2022/10/17 05:56:53;;;;;;;1.60;0.98;;;24.10;59.30;;;;;;4978303;28;20026;-68
2022/10/17 05:59:19;;;;;;;1.95;0.90;;;24.10;59.20;;;;;;5000965;28;20185;-72
2022/10/17 06:01:44;;;;;;;1.65;1.00;;;24.10;59.40;;;;;;4999123;28;20069;-72
2022/10/17 06:04:10;;;;;;;1.70;0.90;;;24.30;59.60;;;;;;4982688;28;20041;-73
2022/10/17 06:06:37;;;;;;;1.50;0.90;;;24.40;59.00;;;;;;4999999;28;20033;-72
2022/10/17 06:09:03;;;;;;;1.55;0.82;;;24.50;59.10;;;;;;5000214;28;20128;-72
2022/10/17 06:11:29;;;;;;;1.40;0.85;;;24.50;58.50;;;;;;4987146;28;20077;-72
2022/10/17 06:13:55;;;;;;;2.63;1.10;;;24.50;58.50;;;;;;4993805;28;20037;-72
2022/10/17 06:16:26;;;;;;;1.65;0.90;;;24.50;58.50;;;;;;5007336;28;20054;-70
2022/10/17 06:18:52;;;;;;;1.75;1.00;;;24.50;58.50;;;;;;4998591;28;20026;-71
2022/10/17 06:21:21;;;;;;;1.23;0.90;;;24.50;59.10;;;;;;5000624;28;20077;-71
2022/10/17 06:23:46;;;;;;;1.42;0.82;;;24.60;58.60;;;;;;4986574;28;20114;-73
2022/10/17 06:26:12;;;;;;;0.80;0.70;;;24.80;58.80;;;;;;4997816;28;20133;-72
2022/10/17 06:28:38;;;;;;;1.40;0.80;;;25.10;58.40;;;;;;5001154;28;20022;-71
2022/10/17 06:31:11;;;;;;;1.27;0.80;;;25.30;57.70;;;;;;5005620;28;20450;-72
2022/10/17 06:33:37;;;;;;;1.77;0.90;;;25.60;56.90;;;;;;4998148;28;20525;-73
2022/10/17 06:36:05;;;;;;;1.95;0.90;;;25.50;56.70;;;;;;4997700;28;20117;-68
2022/10/17 06:38:31;;;;;;;2.08;1.00;;;25.40;56.70;;;;;;4974785;28;20090;-68
2022/10/17 06:41:07;;;;;;;2.08;0.93;;;25.30;56.80;;;;;;4994416;28;20026;-70
2022/10/17 06:43:36;;;;;;;1.67;0.90;;;25.20;56.80;;;;;;4999572;28;20022;-69
2022/10/17 06:46:02;;;;;;;1.80;0.82;;;25.20;57.00;;;;;;4998625;28;20037;-69
2022/10/17 06:48:27;;;;;;;1.83;0.90;;;25.20;57.00;;;;;;4979962;28;20031;-69
2022/10/17 06:50:57;;;;;;;2.08;0.80;;;25.10;57.00;;;;;;4993397;28;20038;-69
2022/10/17 06:53:23;;;;;;;2.10;1.00;;;25.10;57.00;;;;;;4996594;28;20030;-69
2022/10/17 06:56:00;;;;;;;1.83;1.00;;;25.10;57.10;;;;;;5000927;28;20121;-68
2022/10/17 06:58:26;;;;;;;1.90;0.90;;;25.10;57.10;;;;;;5000144;28;20022;-67
2022/10/17 07:00:51;;;;;;;1.60;0.90;;;25.10;57.10;;;;;;4994074;28;20022;-70
2022/10/17 07:03:17;;;;;;;1.85;1.00;;;25.10;57.10;;;;;;5000702;28;20469;-72
2022/10/17 07:05:50;;;;;;;1.67;0.90;;;25.10;57.10;;;;;;4992375;28;20096;-71
2022/10/17 07:08:16;;;;;;;2.10;1.05;;;25.10;57.20;;;;;;4992322;28;20027;-71
2022/10/17 07:10:42;;;;;;;2.28;1.00;;;25.10;57.30;;;;;;4998226;28;20085;-73
2022/10/17 07:13:07;;;;;;;2.25;1.00;;;25.10;57.20;;;;;;4999367;28;20121;-70
2022/10/17 07:15:33;;;;;;;3.10;0.90;;;25.10;57.20;;;;;;4999970;28;20080;-69
2022/10/17 07:17:58;;;;;;;1.13;0.75;;;25.10;57.10;;;;;;4995390;28;20089;-70
2022/10/17 07:20:24;;;;;;;2.30;1.10;;;25.10;57.10;;;;;;4997709;28;20028;-70
2022/10/17 07:22:49;;;;;;;1.92;1.10;;;25.10;57.20;;;;;;4997571;28;20034;-70
2022/10/17 07:25:15;;;;;;;2.08;1.08;;;25.10;57.10;;;;;;4995982;28;20068;-71
2022/10/17 07:27:41;;;;;;;1.73;1.00;;;25.10;57.10;;;;;;4996742;28;20046;-69
2022/10/17 07:30:07;;;;;;;2.83;0.90;;;25.10;57.10;;;;;;4992939;28;20026;-71
2022/10/17 07:32:32;;;;;;;2.00;1.27;;;25.10;57.00;;;;;;4995213;28;20022;-70
2022/10/17 07:34:58;;;;;;;1.42;0.93;;;25.20;57.00;;;;;;5000035;28;20152;-70
2022/10/17 07:37:24;;;;;;;3.97;1.08;;;25.20;57.00;;;;;;4999006;28;20129;-69
2022/10/17 07:39:49;;;;;;;1.42;0.90;;;25.20;57.10;;;;;;4977076;28;20343;-70
2022/10/17 07:42:15;;;;;;;3.17;1.48;;;25.20;57.00;;;;;;5000643;28;20113;-75
2022/10/17 07:44:40;;;;;;;1.90;1.15;;;25.20;56.90;;;;;;4995474;28;20027;-70
2022/10/17 07:47:06;;;;;;;1.45;1.02;;;25.20;56.90;;;;;;4994138;28;20037;-70
2022/10/17 07:49:32;;;;;;;2.88;1.00;;;25.20;56.80;;;;;;4999429;28;20037;-72
2022/10/17 07:51:57;;;;;;;1.65;0.88;;;25.30;56.90;;;;;;4992785;28;20110;-69
2022/10/17 07:54:23;;;;;;;1.25;0.80;;;25.30;56.80;;;;;;4991285;28;20368;-74
2022/10/17 07:56:49;;;;;;;2.05;1.10;;;25.30;57.00;;;;;;4980553;28;20116;-74
2022/10/17 07:59:19;;;;;;;2.72;1.15;;;25.30;56.40;;;;;;4999572;28;20121;-74
2022/10/17 08:01:44;;;;;;;2.00;1.02;;;25.30;56.20;;;;;;4998073;28;20509;-74
2022/10/17 08:04:10;;;;;;;3.33;1.33;;;25.20;56.00;;;;;;4997529;28;20054;-72
2022/10/17 08:06:36;;;;;;;1.60;0.90;;;25.30;56.20;;;;;;4997082;28;20045;-70
2022/10/17 08:09:02;;;;;;;2.72;1.10;;;25.20;56.10;;;;;;4996292;28;20061;-70
2022/10/17 08:11:28;;;;;;;2.58;1.15;;;25.20;56.10;;;;;;4992346;28;20035;-72
2022/10/17 08:13:53;;;;;;;1.80;1.00;;;25.20;56.10;;;;;;4983391;28;20372;-72
2022/10/17 08:16:19;;;;;;;2.53;1.10;;;25.20;56.10;;;;;;4999830;28;20097;-68
2022/10/17 08:18:44;;;;;;;1.88;1.00;;;25.20;56.00;;;;;;4995934;28;20023;-68
2022/10/17 08:21:12;;;;;;;2.30;1.13;;;25.20;56.10;;;;;;4988429;28;20140;-73
2022/10/17 08:23:37;;;;;;;1.42;0.98;;;25.20;56.10;;;;;;4996534;28;20022;-69
2022/10/17 08:26:09;;;;;;;2.25;1.10;;;25.20;56.20;;;;;;4997211;28;20041;-69
2022/10/17 08:28:36;;;;;;;1.48;1.00;;;25.20;56.20;;;;;;4998560;28;20820;-69
2022/10/17 08:31:06;;;;;;;2.05;1.05;;;25.20;56.20;;;;;;4998490;28;20030;-69
2022/10/17 08:33:32;;;;;;;2.15;1.10;;;25.20;56.30;;;;;;5000121;28;20126;-71
2022/10/17 08:36:03;;;;;;;2.10;1.10;;;25.10;56.30;;;;;;4994707;28;20061;-73
2022/10/17 08:38:29;;;;;;;3.22;1.33;;;25.20;56.30;;;;;;4997657;28;20033;-71
2022/10/17 08:40:59;;;;;;;1.50;0.90;;;25.10;56.30;;;;;;5000795;28;20026;-72
2022/10/17 08:43:45;;;;;;;1.15;0.90;;;25.10;56.40;;;;;;5004035;28;20120;-69
2022/10/17 08:46:11;;;;;;;1.30;0.90;;;25.10;56.20;;;;;;5003097;28;20445;-68
2022/10/17 08:48:42;;;;;;;1.70;1.00;;;25.10;56.30;;;;;;4989866;28;20060;-69
2022/10/17 08:51:24;;;;;;;2.22;1.17;;;25.10;56.30;;;;;;5001326;28;20052;-68
2022/10/17 08:54:21;;;;;;;1.23;0.95;;;25.10;56.40;;;;;;4999262;28;20045;-68
2022/10/17 08:56:52;;;;;;;2.50;1.10;;;25.10;56.30;;;;;;5000558;28;20116;-69
2022/10/17 08:59:25;;;;;;;2.10;1.08;;;25.10;56.40;;;;;;4987513;28;20488;-69
2022/10/17 09:02:16;;;;;;;2.33;1.10;;;25.10;56.60;;;;;;4998239;28;20103;-71
2022/10/17 09:04:49;;;;;;;2.30;1.10;;;25.10;56.50;;;;;;5001507;28;20057;-68
2022/10/17 09:07:29;;;;;;;1.80;1.00;;;25.10;56.50;;;;;;5000564;28;20068;-68
2022/10/17 09:10:27;;;;;;;3.58;1.00;;;25.10;56.50;;;;;;4997966;28;20616;-72
2022/10/17 09:12:59;;;;;;;2.20;1.23;;;25.10;56.50;;;;;;4985589;28;20039;-71
2022/10/17 09:15:34;;;;;;;1.73;1.00;;;25.10;56.50;;;;;;4990453;28;20092;-69
2022/10/17 09:18:25;;;;;;;2.72;1.25;;;25.10;56.60;;;;;;5002058;28;20034;-70
2022/10/17 09:20:57;;;;;;;1.95;1.00;;;25.10;56.60;;;;;;4984268;28;20039;-69
2022/10/17 09:23:27;;;;;;;1.98;0.93;;;25.10;56.60;;;;;;4994255;28;20085;-69
2022/10/17 09:25:54;;;;;;;1.90;1.00;;;25.10;56.60;;;;;;4999694;28;20464;-68
2022/10/17 09:28:28;;;;;;;2.58;0.90;;;25.10;56.60;;;;;;4985139;28;20031;-70
2022/10/17 09:31:02;;;;;;;1.95;0.93;;;25.10;56.30;;;;;;5000009;28;20355;-69
2022/10/17 09:33:36;;;;;;;2.28;1.08;;;25.10;56.60;;;;;;5001827;28;20026;-71
2022/10/17 09:36:04;;;;;;;4.10;1.10;;;25.10;56.70;;;;;;5000453;28;20389;-70
2022/10/17 09:38:38;;;;;;;1.92;1.00;;;25.10;56.70;;;;;;4999544;28;20054;-68
2022/10/17 09:41:10;;;;;;;1.45;1.00;;;25.10;56.70;;;;;;4996122;28;20088;-69
2022/10/17 09:43:38;;;;;;;1.48;1.15;;;25.10;56.80;;;;;;5000366;28;20038;-68
2022/10/17 09:46:37;;;;;;;1.65;0.90;;;25.10;56.80;;;;;;4976005;28;20034;-70
2022/10/17 09:49:13;;;;;;;1.92;1.10;;;25.10;56.80;;;;;;4993072;28;20084;-67
2022/10/17 09:51:39;;;;;;;1.92;0.93;;;25.10;56.80;;;;;;4992936;28;20038;-68
2022/10/17 09:54:16;;;;;;;2.20;0.90;;;25.10;56.80;;;;;;4996511;28;20033;-67
2022/10/17 09:57:05;;;;;;;1.60;1.00;;;25.10;56.80;;;;;;4981512;28;20066;-67
2022/10/17 09:59:36;;;;;;;1.50;1.00;;;25.10;56.80;;;;;;4979784;28;20026;-69
2022/10/17 10:02:11;;;;;;;1.90;1.10;;;25.10;56.70;;;;;;4996412;28;20034;-69
2022/10/17 10:05:15;;;;;;;3.65;1.30;;;25.10;56.70;;;;;;4992251;28;20450;-70
2022/10/17 10:07:44;;;;;;;2.45;1.17;;;25.10;56.70;;;;;;4988050;28;20509;-68
2022/10/17 10:10:22;;;;;;;;;;;25.10;56.70;;;;;;4999564;28;20022;-68
2022/10/17 10:13:01;;;;;;;1.95;1.10;;;25.10;56.80;;;;;;5002530;28;20039;-69
2022/10/17 10:15:36;;;;;;;1.92;1.10;;;25.10;56.80;;;;;;5000030;28;20034;-68
2022/10/17 10:18:22;;;;;;;1.52;0.90;;;25.10;56.80;;;;;;4996285;28;20026;-70
2022/10/17 10:21:27;;;;;;;1.90;1.13;;;25.20;56.80;;;;;;4993448;28;20105;-68
2022/10/17 10:24:02;;;;;;;2.47;1.20;;;25.20;56.90;;;;;;4992695;28;20037;-68
2022/10/17 10:26:34;;;;;;;1.85;1.10;;;25.20;56.90;;;;;;4996991;28;20470;-67
2022/10/17 10:29:04;;;;;;;1.70;1.00;;;25.20;57.00;;;;;;4977454;28;20055;-67
2022/10/17 10:31:35;;;;;;;1.95;1.00;;;25.20;57.00;;;;;;4975170;28;20041;-67
2022/10/17 10:34:14;;;;;;;2.30;1.20;;;25.20;57.10;;;;;;4994691;28;20021;-67
2022/10/17 10:37:08;;;;;;;3.65;1.33;;;25.20;57.10;;;;;;4981198;28;20033;-67
2022/10/17 10:39:40;;;;;;;1.83;1.08;;;25.20;57.10;;;;;;4985744;28;20046;-67
2022/10/17 10:42:17;;;;;;;1.48;0.90;;;25.20;57.10;;;;;;4991366;28;20022;-67
2022/10/17 10:44:44;;;;;;;2.40;1.25;;;25.20;57.10;;;;;;4989720;28;20040;-68
2022/10/17 10:47:25;;;;;;;2.05;1.10;;;25.20;57.10;;;;;;5001517;28;20082;-66
2022/10/17 10:50:06;;;;;;;2.83;1.02;;;25.20;57.10;;;;;;4994585;28;20034;-68
2022/10/17 10:52:42;;;;;;;2.38;1.00;;;25.20;57.10;;;;;;4994549;28;20038;-68
2022/10/17 10:55:28;;;;;;;2.10;1.10;;;25.20;57.10;;;;;;4997783;28;20025;-69
2022/10/17 10:58:08;;;;;;;3.13;1.30;;;25.30;57.20;;;;;;4996015;28;20026;-65
2022/10/17 11:00:37;;;;;;;2.15;1.20;;;25.30;57.10;;;;;;4996285;28;20029;-68
2022/10/17 11:03:09;;;;;;;2.30;1.20;;;25.30;57.60;;;;;;4996629;28;20497;-68
2022/10/17 11:05:50;;;;;;;2.95;1.20;;;25.30;57.10;;;;;;4983796;28;20037;-68
2022/10/17 11:08:39;;;;;;;4.07;1.27;;;25.30;57.60;;;;;;4998671;28;20505;-67
2022/10/17 11:11:28;;;;;;;4.72;1.20;;;25.30;57.20;;;;;;4999619;28;20042;-68
2022/10/17 11:14:16;;;;;;;1.90;1.20;;;25.30;57.20;;;;;;4963701;28;20147;-68
2022/10/17 11:16:53;;;;;;;2.35;1.10;;;25.30;57.20;;;;;;4990453;28;20069;-69
2022/10/17 11:19:31;;;;;;;2.70;1.20;;;25.30;57.20;;;;;;4979444;28;20057;-70
2022/10/17 11:22:14;;;;;;;2.10;1.20;;;25.40;57.30;;;;;;4994740;28;20026;-72
2022/10/17 11:25:19;;;;;;;2.38;1.30;;;25.40;57.30;;;;;;4989897;28;20512;-68
2022/10/17 11:27:44;;;;;;;1.70;1.00;;;25.40;57.30;;;;;;4955805;28;20564;-68
2022/10/17 11:30:17;;;;;;;1.80;1.08;;;25.40;57.40;;;;;;4981009;28;20042;-68
2022/10/17 11:32:47;;;;;;;2.15;1.10;;;25.40;57.30;;;;;;4981825;28;20487;-72
2022/10/17 11:35:24;;;;;;;1.98;1.10;;;25.40;57.30;;;;;;4984787;28;20489;-66
2022/10/17 11:38:15;;;;;;;2.22;1.08;;;25.40;57.40;;;;;;4967616;28;20114;-70
2022/10/17 11:40:45;;;;;;;2.00;1.20;;;25.40;57.30;;;;;;4995252;28;20381;-67
2022/10/17 11:43:16;;;;;;;1.52;1.00;;;25.40;57.30;;;;;;4978808;28;20037;-66
2022/10/17 11:45:45;;;;;;;2.05;1.00;;;25.40;57.30;;;;;;4980519;28;20083;-68
2022/10/17 11:48:14;;;;;;;2.80;1.10;;;25.40;57.40;;;;;;4999122;28;20026;-67
2022/10/17 11:50:45;;;;;;;1.95;1.10;;;25.40;57.40;;;;;;4998453;28;20123;-69
2022/10/17 11:53:19;;;;;;;1.92;1.15;;;25.40;57.40;;;;;;4997811;28;20040;-70
2022/10/17 11:55:46;;;;;;;1.90;1.02;;;25.50;57.50;;;;;;4996231;28;20121;-70
2022/10/17 11:58:17;;;;;;;2.28;1.10;;;25.50;57.50;;;;;;4992607;28;20034;-68
2022/10/17 12:00:53;;;;;;;2.10;1.08;;;25.50;57.40;;;;;;4994228;28;20112;-69
2022/10/17 12:03:49;;;;;;;2.53;1.20;;;25.50;57.40;;;;;;5000947;28;20033;-69
2022/10/17 12:06:23;;;;;;;1.80;1.10;;;25.50;57.40;;;;;;5002021;28;20339;-69
2022/10/17 12:08:52;;;;;;;2.78;1.20;;;25.60;57.40;;;;;;4993354;28;20070;-69
2022/10/17 12:11:49;;;;;;;2.05;1.00;;;25.50;57.30;;;;;;5001580;28;20449;-69
2022/10/17 12:14:33;;;;;;;2.10;1.05;;;25.60;57.50;;;;;;4985682;28;20026;-71
2022/10/17 12:17:00;;;;;;;2.03;1.13;;;25.60;57.40;;;;;;5002019;28;20134;-67
2022/10/17 12:19:32;;;;;;;1.70;1.00;;;25.60;57.40;;;;;;4998362;28;20048;-68
2022/10/17 12:22:16;;;;;;;2.22;1.00;;;25.60;57.50;;;;;;4998937;28;20021;-69
2022/10/17 12:24:43;;;;;;;2.28;1.00;;;25.60;57.40;;;;;;4999348;28;20501;-68
2022/10/17 12:27:38;;;;;;;1.67;1.00;;;25.70;57.50;;;;;;4997436;28;20026;-68
2022/10/17 12:30:15;;;;;;;1.65;1.00;;;25.70;57.50;;;;;;5001779;28;20084;-68
2022/10/17 12:33:20;;;;;;;3.63;1.02;;;25.70;57.50;;;;;;5003566;28;20026;-68
2022/10/17 12:35:47;;;;;;;1.92;1.15;;;25.70;57.40;;;;;;5003371;28;20030;-68
2022/10/17 12:38:26;;;;;;;1.77;0.98;;;25.70;57.40;;;;;;5000044;28;20494;-68
2022/10/17 12:40:55;;;;;;;1.48;1.00;;;25.70;57.40;;;;;;5002363;28;20038;-68
2022/10/17 12:43:26;;;;;;;2.10;1.10;;;25.70;57.40;;;;;;5000326;28;20030;-68
2022/10/17 12:46:00;;;;;;;1.77;1.10;;;25.80;57.50;;;;;;4982879;28;20469;-68
2022/10/17 12:48:32;;;;;;;1.63;1.05;;;25.70;57.30;;;;;;4994952;28;20475;-67
2022/10/17 12:51:18;;;;;;;2.38;1.10;;;25.80;57.30;;;;;;5002592;28;20179;-67
2022/10/17 12:53:52;;;;;;;2.22;1.15;;;25.80;57.30;;;;;;5002629;28;20037;-68
2022/10/17 12:56:33;;;;;;;1.35;0.90;;;25.80;57.20;;;;;;4998957;28;20053;-67
2022/10/17 12:58:59;;;;;;;1.92;1.00;;;25.80;57.20;;;;;;4985359;28;20048;-67
2022/10/17 13:01:32;;;;;;;1.30;0.82;;;25.80;57.20;;;;;;4977230;28;20031;-67
2022/10/17 13:04:04;;;;;;;1.70;0.98;;;25.80;57.70;;;;;;4984021;28;20087;-69
2022/10/17 13:06:36;;;;;;;1.83;1.00;;;25.90;57.20;;;;;;4999966;28;20136;-68
2022/10/17 13:09:16;;;;;;;1.95;1.10;;;25.80;57.20;;;;;;4982664;28;20470;-69
2022/10/17 13:11:42;;;;;;;1.55;0.90;;;25.90;57.30;;;;;;4993177;28;20018;-70